aviador You're here:

KCNK Decoded Metar

CONCORDIA in KS, USA
Report Time2017-11-25 06:55:00
UTC Time2017-11-25 07:42:39
Flight Rules unknown UNKNOWN
Wind010° at 04 kt
W.Decomp.*RWY 35: 3.9 kt HW 1.0 kt RCW
RWY 03: 3.6 kt HW 1.8 kt LCW
RWY 30: 1.8 kt HW 3.6 kt RCW
W.Rank010° ranks 12
Current wind is below 010° avg. (10.0)
VisibilityN/A
Phenomena:N/A
Clouds:N/A
Expected CloudBase > 2,400 ft AGL from Temp-Dew spread
CeilingNone
Temp07°C (ISA -5)
Dew Point01°C (66% RH)
AAT3.7°C
QNH1017 hPa
Density Alt817 ft
Elevation1,467 ft
Report Wrong Elevation
Raw Report
KCNK 250655Z AUTO 01004KT CLR 07/01 A3004 RMK AO2 SLP165
T00670011=

Extra information for KCNK:More info

Metar Taf Metar & Taf Last 4 Metars F.Rules Stats Wind Profile Meteogram Temp Stats Airport Information Weather charts Add Link Nearby VenuesMetar ALERT Operation Metar Decoded Social comments

AIRNAV info for KCNK